Time;durP1;ratioP1;P1;durP2;ratioP2;P2;SDS_P1;SDS_P2;PMS_P1;PMS_P2;Temp;Humidity;BMP_temperature;BMP_pressure;BME280_temperature;BME280_humidity;BME280_pressure;Samples;Min_cycle;Max_cycle;Signal;HPM_P1;HPM_P2
2022/06/21 00:01:06;;;;;;;2.57;2.00;;;;;;;16.30;80.40;155548.66;5012919;28;20813;-75
2022/06/21 00:03:33;;;;;;;3.60;2.40;;;;;;;16.34;80.71;155559.06;5012218;28;20526;-75
2022/06/21 00:06:00;;;;;;;2.67;2.20;;;;;;;16.38;80.06;155570.78;5011948;28;20539;-75
2022/06/21 00:08:28;;;;;;;3.17;2.10;;;;;;;16.39;79.72;155573.34;5010321;28;20468;-75
2022/06/21 00:10:56;;;;;;;4.00;2.47;;;;;;;16.36;79.65;155564.28;5008464;28;20446;-75
2022/06/21 00:13:25;;;;;;;3.00;2.73;;;;;;;16.35;79.72;155561.66;5005155;28;20892;-75
2022/06/21 00:15:54;;;;;;;2.57;2.00;;;;;;;16.29;79.96;155546.06;5011776;28;20472;-75
2022/06/21 00:18:24;;;;;;;3.03;2.50;;;;;;;16.22;80.12;155527.84;5007915;28;20503;-74
2022/06/21 00:20:51;;;;;;;2.73;2.10;;;;;;;16.15;80.79;155509.66;5011607;28;20508;-75
2022/06/21 00:23:19;;;;;;;5.23;2.53;;;;;;;16.17;80.05;155514.88;5012595;28;20450;-74
2022/06/21 00:25:47;;;;;;;2.20;2.00;;;;;;;16.12;81.29;155503.16;5012557;28;20538;-74
2022/06/21 00:28:13;;;;;;;2.47;2.20;;;;;;;16.10;81.13;155497.94;4993808;28;20448;-75
2022/06/21 00:30:40;;;;;;;4.00;2.40;;;;;;;16.04;81.93;155481.06;5024643;28;20453;-75
2022/06/21 00:33:09;;;;;;;2.13;1.93;;;;;;;16.03;82.17;155478.44;5011482;28;20518;-75
2022/06/21 00:35:37;;;;;;;2.57;2.37;;;;;;;16.00;82.43;155470.63;5020036;28;20595;-75
2022/06/21 00:38:04;;;;;;;6.10;2.40;;;;;;;15.97;82.78;155462.81;5010807;28;20456;-75
2022/06/21 00:40:33;;;;;;;3.00;2.60;;;;;;;16.05;81.59;155483.63;5012700;28;20567;-75
2022/06/21 00:43:03;;;;;;;3.00;2.03;;;;;;;15.97;79.36;155464.13;5012960;28;20535;-75
2022/06/21 00:45:33;;;;;;;5.13;2.17;;;;;;;15.97;76.33;155462.81;4993797;28;20855;-74
2022/06/21 00:48:04;;;;;;;3.17;2.40;;;;;;;15.91;76.69;155447.25;5007769;28;20452;-74
2022/06/21 00:50:33;;;;;;;2.20;2.00;;;;;;;15.84;76.78;155431.63;5010656;28;20468;-75
2022/06/21 00:53:05;;;;;;;1.90;1.70;;;;;;;15.76;77.29;155410.84;5007411;28;20849;-75
2022/06/21 00:55:40;;;;;;;2.03;1.80;;;;;;;15.71;77.86;155397.84;5013712;28;20417;-75
2022/06/21 00:58:10;;;;;;;2.87;2.20;;;;;;;15.69;77.91;155392.66;5012759;28;20840;-74
2022/06/21 01:00:39;;;;;;;2.43;2.10;;;;;;;15.83;76.06;155427.75;5010567;28;20468;-74
2022/06/21 01:03:09;;;;;;;2.40;2.10;;;;;;;15.75;77.57;155408.22;5010895;28;20950;-75
2022/06/21 01:05:40;;;;;;;3.03;2.10;;;;;;;15.73;79.83;155403.03;5010392;28;20441;-75
2022/06/21 01:08:08;;;;;;;2.03;1.83;;;;;;;15.72;78.51;155399.16;5011218;28;20444;-75
2022/06/21 01:10:35;;;;;;;3.20;2.07;;;;;;;15.71;78.94;155397.84;5010434;28;20444;-75
2022/06/21 01:13:04;;;;;;;5.13;2.37;;;;;;;15.69;79.37;155392.66;5027824;28;20447;-75
2022/06/21 01:15:33;;;;;;;2.50;2.30;;;;;;;15.65;79.71;155382.22;5008712;28;20956;-75
2022/06/21 01:18:03;;;;;;;2.87;2.33;;;;;;;15.63;80.77;155375.72;5003525;28;20536;-74
2022/06/21 01:20:33;;;;;;;2.30;2.10;;;;;;;15.65;82.31;155382.22;5010012;28;20860;-75
2022/06/21 01:23:11;;;;;;;2.40;2.20;;;;;;;15.60;80.39;155369.22;5006907;28;20555;-75
2022/06/21 01:25:44;;;;;;;3.23;2.00;;;;;;;15.58;79.06;155364.03;5026326;28;20448;-74
2022/06/21 01:28:13;;;;;;;3.17;2.00;;;;;;;15.54;78.15;155353.63;5010616;28;20506;-75
2022/06/21 01:30:42;;;;;;;2.47;2.10;;;;;;;15.53;76.95;155351.06;5009544;28;20670;-74
2022/06/21 01:33:11;;;;;;;2.00;1.80;;;;;;;15.53;78.46;155351.06;5010609;28;20451;-75
2022/06/21 01:35:41;;;;;;;3.67;2.17;;;;;;;15.53;77.72;155349.75;5022024;28;20559;-75
2022/06/21 01:38:11;;;;;;;3.07;1.70;;;;;;;15.58;75.97;155364.03;5010283;28;20459;-74
2022/06/21 01:40:42;;;;;;;2.00;1.90;;;;;;;15.58;74.97;155364.03;5011383;28;20495;-75
2022/06/21 01:43:12;;;;;;;2.30;1.90;;;;;;;15.57;74.87;155361.44;5010966;28;21365;-75
2022/06/21 01:45:40;;;;;;;2.37;1.80;;;;;;;15.53;73.82;155351.06;5009371;28;20479;-75
2022/06/21 01:48:12;;;;;;;2.23;1.93;;;;;;;15.46;74.90;155332.81;5000850;28;20447;-75
2022/06/21 01:50:40;;;;;;;2.87;2.20;;;;;;;15.37;74.81;155309.41;5011067;28;20452;-75
2022/06/21 01:53:08;;;;;;;2.40;1.90;;;;;;;15.29;74.35;155288.63;5012225;28;20441;-74
2022/06/21 01:55:39;;;;;;;2.40;1.93;;;;;;;15.27;74.05;155283.44;5010480;28;20539;-74
2022/06/21 01:58:07;;;;;;;2.20;1.70;;;;;;;15.15;74.30;155252.22;5002709;28;20500;-75
2022/06/21 02:00:36;;;;;;;2.20;1.93;;;;;;;15.11;73.71;155241.84;5009883;28;20472;-75
2022/06/21 02:03:08;;;;;;;2.57;2.37;;;;;;;14.96;73.94;155204.13;5010350;28;20523;-76
2022/06/21 02:05:40;;;;;;;2.67;2.00;;;;;;;14.88;73.30;155182.09;5009942;28;20972;-75
2022/06/21 02:08:10;;;;;;;2.70;1.93;;;;;;;14.86;72.99;155178.16;5007965;28;20449;-75
2022/06/21 02:10:39;;;;;;;3.10;2.20;;;;;;;14.88;71.98;155183.34;5010772;28;20445;-76
2022/06/21 02:13:08;;;;;;;2.43;2.10;;;;;;;14.81;71.72;155165.19;5009508;28;20453;-75
2022/06/21 02:15:38;;;;;;;2.50;2.30;;;;;;;14.86;71.17;155176.84;5004543;28;20495;-75
2022/06/21 02:18:10;;;;;;;4.33;2.00;;;;;;;14.85;70.69;155175.53;5007840;28;20561;-76
2022/06/21 02:20:40;;;;;;;2.03;1.73;;;;;;;14.87;68.59;155179.47;5009662;28;20472;-75
2022/06/21 02:23:07;;;;;;;3.27;2.00;;;;;;;14.80;69.18;155162.56;5011359;28;20487;-74
2022/06/21 02:25:34;;;;;;;2.40;2.10;;;;;;;14.87;69.65;155179.47;5012128;28;20441;-75
2022/06/21 02:28:03;;;;;;;2.07;1.87;;;;;;;14.92;71.07;155192.47;5008862;28;20444;-74
2022/06/21 02:30:30;;;;;;;2.00;1.83;;;;;;;14.94;72.06;155197.66;5002206;28;20964;-74
2022/06/21 02:33:00;;;;;;;2.60;2.27;;;;;;;14.95;71.96;155200.25;5010799;28;20457;-75
2022/06/21 02:35:29;;;;;;;2.40;2.17;;;;;;;14.87;70.46;155180.78;5004636;28;20425;-74
2022/06/21 02:37:58;;;;;;;2.50;2.30;;;;;;;14.87;70.23;155179.47;5011251;28;20451;-74
2022/06/21 02:40:28;;;;;;;2.70;2.50;;;;;;;14.91;70.64;155189.84;5020464;28;20467;-74
2022/06/21 02:42:59;;;;;;;2.40;2.20;;;;;;;14.96;71.53;155202.81;5006366;28;20441;-74
2022/06/21 02:45:32;;;;;;;3.13;2.17;;;;;;;14.96;69.53;155202.81;5026708;28;20480;-75
2022/06/21 02:48:08;;;;;;;4.43;2.20;;;;;;;14.96;69.91;155202.81;5009888;28;20440;-75
2022/06/21 02:50:37;;;;;;;2.93;2.03;;;;;;;14.90;70.26;155187.28;5024905;28;20947;-75
2022/06/21 02:53:13;;;;;;;3.07;2.87;;;;;;;14.87;71.36;155179.47;5010446;28;20924;-75
2022/06/21 02:55:43;;;;;;;2.60;2.40;;;;;;;14.86;71.65;155178.16;5009643;28;20440;-75
2022/06/21 02:58:16;;;;;;;3.83;2.13;;;;;;;14.85;71.71;155175.53;5010957;28;20480;-75
2022/06/21 03:00:43;;;;;;;2.43;2.23;;;;;;;14.83;71.39;155170.34;5010492;28;20547;-75
2022/06/21 03:03:16;;;;;;;2.30;2.10;;;;;;;14.88;71.47;155182.09;5013441;28;20441;-75
2022/06/21 03:05:43;;;;;;;2.70;2.43;;;;;;;14.95;70.71;155201.56;5008417;28;20533;-75
2022/06/21 03:08:11;;;;;;;2.60;2.40;;;;;;;15.00;70.03;155213.25;5011515;28;20455;-75
2022/06/21 03:10:39;;;;;;;2.73;2.53;;;;;;;14.91;70.91;155191.16;5016880;28;20444;-74
2022/06/21 03:13:09;;;;;;;2.33;2.13;;;;;;;14.92;70.71;155192.47;5027079;28;20461;-75
2022/06/21 03:15:37;;;;;;;3.20;2.23;;;;;;;14.83;72.26;155170.34;4995567;28;20472;-75
2022/06/21 03:18:07;;;;;;;2.50;1.97;;;;;;;14.77;72.46;155153.50;5014237;28;20445;-74
2022/06/21 03:20:37;;;;;;;3.10;2.03;;;;;;;14.81;71.01;155165.19;5027987;28;20519;-75
2022/06/21 03:23:05;;;;;;;2.63;2.43;;;;;;;14.88;71.15;155183.34;5028697;28;20448;-75
2022/06/21 03:25:45;;;;;;;2.43;2.23;;;;;;;14.88;69.73;155183.34;5011979;28;20951;-75
2022/06/21 03:28:28;;;;;;;3.57;2.97;;;;;;;15.01;67.63;155217.13;5004952;28;20470;-74
2022/06/21 03:30:59;;;;;;;2.70;2.50;;;;;;;15.00;67.84;155213.25;5013012;28;20448;-74
2022/06/21 03:33:26;;;;;;;2.53;2.33;;;;;;;14.93;68.36;155195.06;5014061;28;20453;-79
2022/06/21 03:35:55;;;;;;;4.20;2.90;;;;;;;14.90;68.49;155187.28;5014076;28;20443;-79
2022/06/21 03:38:23;;;;;;;2.47;2.20;;;;;;;14.82;68.95;155167.78;5009743;28;20464;-80
2022/06/21 03:43:37;;;;;;;3.60;2.30;;;;;;;14.81;69.42;155165.19;5013444;28;20448;-79
2022/06/21 03:46:13;;;;;;;4.10;2.13;;;;;;;14.82;67.99;155167.78;4995947;28;20451;-80
2022/06/21 03:48:43;;;;;;;3.70;2.87;;;;;;;14.89;68.29;155184.66;5013726;28;20551;-80
2022/06/21 03:51:14;;;;;;;2.53;2.33;;;;;;;14.94;68.50;155197.66;5007915;28;20979;-80
2022/06/21 03:53:46;;;;;;;2.97;2.53;;;;;;;14.98;66.50;155208.06;5012855;28;20544;-80
2022/06/21 03:56:17;;;;;;;2.30;2.10;;;;;;;15.06;65.63;155228.84;5010999;28;20451;-80
2022/06/21 03:58:49;;;;;;;2.67;2.47;;;;;;;15.17;64.03;155257.41;5021450;28;20484;-79
2022/06/21 04:01:20;;;;;;;3.60;2.50;;;;;;;15.16;64.84;155256.13;5014834;28;20461;-80
2022/06/21 04:03:51;;;;;;;2.93;2.30;;;;;;;15.23;64.05;155273.00;5014575;28;20539;-80
2022/06/21 04:06:25;;;;;;;2.23;2.03;;;;;;;15.25;64.23;155278.19;5008015;28;20466;-79
2022/06/21 04:08:56;;;;;;;2.53;2.33;;;;;;;15.34;64.71;155301.59;5007029;28;20468;-78
2022/06/21 04:11:26;;;;;;;3.20;2.30;;;;;;;15.38;64.36;155310.72;4999206;28;21089;-79
2022/06/21 04:14:00;;;;;;;3.40;2.70;;;;;;;15.45;64.47;155330.19;5006241;28;20456;-80
2022/06/21 04:16:34;;;;;;;2.97;2.70;;;;;;;15.58;64.33;155364.03;4995747;28;20452;-79
2022/06/21 04:19:03;;;;;;;3.30;2.20;;;;;;;15.67;64.46;155386.16;5005917;28;20456;-80
2022/06/21 04:21:38;;;;;;;3.10;2.80;;;;;;;15.75;64.69;155408.22;5012209;28;20884;-80
2022/06/21 04:24:10;;;;;;;3.00;2.57;;;;;;;15.83;64.68;155429.03;5010895;28;21152;-80
2022/06/21 04:26:41;;;;;;;3.27;2.47;;;;;;;16.07;64.53;155488.88;5003486;28;20449;-80
2022/06/21 04:29:11;;;;;;;3.17;2.50;;;;;;;16.07;63.09;155488.88;5010462;28;20556;-80
2022/06/21 04:31:42;;;;;;;3.00;2.67;;;;;;;16.26;62.51;155538.25;5009681;28;20510;-80
2022/06/21 04:34:15;;;;;;;3.37;3.00;;;;;;;16.33;62.05;155556.47;5015235;28;20945;-80
2022/06/21 04:36:47;;;;;;;3.50;2.53;;;;;;;16.42;62.75;155579.88;5012878;28;20444;-80
2022/06/21 04:39:18;;;;;;;4.03;2.67;;;;;;;16.43;62.45;155582.47;5009920;28;20457;-80
2022/06/21 04:41:48;;;;;;;2.70;2.50;;;;;;;16.50;62.68;155600.66;5011950;28;20499;-80
2022/06/21 04:44:20;;;;;;;3.57;3.27;;;;;;;16.33;62.39;155557.78;5012200;28;20462;-79
2022/06/21 04:46:49;;;;;;;3.00;2.70;;;;;;;16.49;63.05;155598.09;5010749;28;20920;-80
2022/06/21 04:49:20;;;;;;;3.50;2.47;;;;;;;16.68;62.94;155647.53;5011541;28;20810;-80
2022/06/21 04:51:52;;;;;;;3.20;2.90;;;;;;;16.81;61.90;155681.38;5028614;28;21003;-80
2022/06/21 04:54:24;;;;;;;4.17;2.47;;;;;;;16.75;61.25;155665.78;5028912;28;20881;-80
2022/06/21 04:56:58;;;;;;;2.90;2.60;;;;;;;16.71;61.39;155654.03;5010502;28;20448;-79
2022/06/21 04:59:27;;;;;;;3.33;2.87;;;;;;;16.75;61.02;155665.78;5011743;28;20590;-80
2022/06/21 05:01:54;;;;;;;3.33;2.40;;;;;;;16.96;61.14;155720.44;5010733;28;20464;-80
2022/06/21 05:04:24;;;;;;;4.40;3.07;;;;;;;16.79;61.10;155676.19;5012402;28;20847;-78
2022/06/21 05:06:54;;;;;;;5.37;4.87;;;;;;;16.60;61.57;155626.72;5011237;28;20808;-80
2022/06/21 05:09:22;;;;;;;2.80;2.60;;;;;;;16.68;61.81;155647.53;5009755;28;20463;-80
2022/06/21 05:11:51;;;;;;;2.87;2.23;;;;;;;16.61;61.59;155629.34;5008932;28;20444;-81
2022/06/21 05:14:24;;;;;;;4.03;2.80;;;;;;;16.60;63.14;155626.72;5012714;28;20519;-81
2022/06/21 05:16:51;;;;;;;4.73;3.07;;;;;;;16.71;63.03;155655.34;5028881;28;20487;-82
2022/06/21 05:19:19;;;;;;;7.87;2.53;;;;;;;16.64;63.18;155635.84;5013368;28;20452;-81
2022/06/21 05:21:49;;;;;;;3.07;2.77;;;;;;;16.62;62.94;155631.97;5028341;28;20535;-82
2022/06/21 05:24:22;;;;;;;3.93;3.27;;;;;;;16.70;62.33;155651.47;5023970;28;20808;-82
2022/06/21 05:26:56;;;;;;;2.80;2.40;;;;;;;16.60;62.80;155626.72;5010539;28;20481;-82
2022/06/21 05:29:28;;;;;;;3.30;2.60;;;;;;;16.70;62.73;155652.78;5025612;28;20559;-82
2022/06/21 05:31:58;;;;;;;2.60;2.40;;;;;;;17.01;63.32;155733.44;5009835;28;20810;-81
2022/06/21 05:34:28;;;;;;;6.57;2.97;;;;;;;17.42;61.12;155837.56;5012337;28;20488;-81
2022/06/21 05:36:58;;;;;;;5.67;3.23;;;;;;;17.51;59.53;155860.97;5003490;28;20880;-81
2022/06/21 05:39:30;;;;;;;5.33;2.60;;;;;;;17.69;59.15;155907.88;5014656;28;20456;-81
2022/06/21 05:42:01;;;;;;;3.03;2.73;;;;;;;17.64;57.79;155896.16;5001759;28;20473;-81
2022/06/21 05:44:32;;;;;;;3.97;2.83;;;;;;;17.77;59.05;155928.69;5008380;28;20548;-81
2022/06/21 05:47:02;;;;;;;2.90;2.53;;;;;;;18.07;58.33;156005.53;5006317;28;20780;-81
2022/06/21 05:49:31;;;;;;;3.67;2.37;;;;;;;18.19;56.81;156036.75;5013063;28;20457;-81
2022/06/21 05:52:00;;;;;;;5.63;2.37;;;;;;;18.33;57.10;156071.94;5013407;28;20524;-81
2022/06/21 05:54:32;;;;;;;3.30;2.40;;;;;;;18.48;56.81;156111.09;5011095;28;20467;-81
2022/06/21 05:57:00;;;;;;;4.67;2.53;;;;;;;18.46;56.00;156105.81;5023580;28;20456;-81
2022/06/21 05:59:27;;;;;;;4.90;3.00;;;;;;;18.41;56.78;156094.09;5012916;28;20485;-81
2022/06/21 06:01:57;;;;;;;2.70;2.20;;;;;;;18.36;57.35;156081.06;5013084;28;20481;-82
2022/06/21 06:04:26;;;;;;;2.77;2.57;;;;;;;18.04;56.29;155999.03;5028711;28;20441;-81
2022/06/21 06:06:55;;;;;;;4.77;2.50;;;;;;;17.85;55.26;155948.22;5021292;28;20457;-81
2022/06/21 06:09:26;;;;;;;3.80;3.40;;;;;;;17.84;56.33;155946.97;4996869;28;20566;-81
2022/06/21 06:12:00;;;;;;;2.90;2.67;;;;;;;17.73;56.03;155918.31;5010640;28;20468;-81
2022/06/21 06:14:37;;;;;;;2.77;2.30;;;;;;;17.46;56.16;155849.25;5026497;28;20539;-81
2022/06/21 06:17:08;;;;;;;4.53;2.60;;;;;;;17.72;57.02;155915.69;5012012;28;20487;-81
2022/06/21 06:19:40;;;;;;;3.03;2.40;;;;;;;17.70;56.97;155910.50;5013123;28;20465;-82
2022/06/21 06:22:22;;;;;;;3.50;2.93;;;;;;;18.00;57.73;155988.59;5011359;28;20472;-81
2022/06/21 06:24:54;;;;;;;6.63;3.03;;;;;;;18.20;56.81;156040.69;5011898;28;20452;-81
2022/06/21 06:27:29;;;;;;;4.70;2.80;;;;;;;18.59;55.21;156139.72;5018913;28;20955;-81
2022/06/21 06:29:57;;;;;;;4.67;2.63;;;;;;;18.83;54.84;156202.25;5021519;28;20544;-80
2022/06/21 06:32:28;;;;;;;3.60;3.30;;;;;;;19.18;54.17;156293.50;5006273;28;20452;-81
2022/06/21 06:34:56;;;;;;;3.97;3.57;;;;;;;19.56;53.31;156391.31;5020535;28;21446;-81
2022/06/21 06:37:30;;;;;;;4.03;2.90;;;;;;;19.51;52.72;156376.97;5028926;28;21006;-80
2022/06/21 06:39:57;;;;;;;5.63;2.77;;;;;;;19.43;53.78;156357.41;5016379;28;20459;-81
2022/06/21 06:42:27;;;;;;;5.37;3.57;;;;;;;19.52;53.31;156379.53;5015906;28;20483;-81
2022/06/21 06:44:57;;;;;;;3.03;2.40;;;;;;;19.75;54.04;156440.81;5015715;28;20528;-82
2022/06/21 06:47:35;;;;;;;3.20;2.60;;;;;;;19.98;53.16;156500.81;5013817;28;21234;-82
2022/06/21 06:50:05;;;;;;;3.30;3.00;;;;;;;19.94;52.47;156489.06;5032706;28;20550;-83
2022/06/21 06:52:35;;;;;;;3.13;2.83;;;;;;;20.51;51.64;156637.81;5016337;28;20437;-82
2022/06/21 06:55:06;;;;;;;3.73;2.63;;;;;;;20.77;50.31;156704.34;5013607;28;20452;-82
2022/06/21 06:57:39;;;;;;;4.07;2.83;;;;;;;21.02;49.00;156769.56;5016050;28;20444;-82
2022/06/21 07:00:14;;;;;;;3.67;3.07;;;;;;;21.42;48.63;156871.44;4998526;28;20548;-83
2022/06/21 07:02:45;;;;;;;3.20;2.90;;;;;;;21.67;47.82;156938.00;5015613;28;20571;-83
2022/06/21 07:05:32;;;;;;;3.30;2.80;;;;;;;21.58;48.78;156914.47;5014072;28;20444;-83
2022/06/21 07:08:04;;;;;;;3.63;3.10;;;;;;;21.62;48.26;156924.97;5013460;28;20483;-83
2022/06/21 07:10:31;;;;;;;7.47;2.40;;;;;;;21.97;47.04;157015.09;5011228;28;20476;-83
2022/06/21 07:12:59;;;;;;;3.97;3.10;;;;;;;22.15;45.97;157060.78;5015527;28;20476;-82
2022/06/21 07:15:33;;;;;;;3.47;3.17;;;;;;;22.08;46.56;157043.78;4999899;28;20552;-82
2022/06/21 07:18:00;;;;;;;3.63;2.37;;;;;;;22.28;46.50;157094.75;5009929;28;20449;-82
2022/06/21 07:20:37;;;;;;;2.50;2.23;;;;;;;22.57;46.82;157170.50;5013670;28;20449;-82
2022/06/21 07:23:12;;;;;;;4.00;2.40;;;;;;;22.56;46.03;157167.88;5014230;28;20472;-81
2022/06/21 07:25:42;;;;;;;5.07;2.50;;;;;;;22.32;46.38;157105.16;5012639;28;20443;-82
2022/06/21 07:28:13;;;;;;;3.20;2.67;;;;;;;22.52;45.97;157157.44;5024222;28;20453;-81
2022/06/21 07:30:43;;;;;;;3.33;2.70;;;;;;;22.58;46.54;157173.13;5014423;28;20436;-82
2022/06/21 07:33:13;;;;;;;5.10;3.07;;;;;;;22.63;45.58;157186.25;5031794;28;20443;-82
2022/06/21 07:35:43;;;;;;;2.57;2.37;;;;;;;22.94;44.34;157267.25;5026321;28;20428;-82
2022/06/21 07:38:13;;;;;;;2.60;2.40;;;;;;;22.79;45.77;157228.06;5015404;28;20506;-85
2022/06/21 07:41:05;;;;;;;3.87;2.60;;;;;;;22.72;46.04;157209.72;5006671;28;20448;-86
2022/06/21 07:43:38;;;;;;;3.30;2.50;;;;;;;22.89;45.18;157254.16;5014741;28;20460;-86
2022/06/21 07:46:07;;;;;;;3.33;2.70;;;;;;;22.55;45.05;157165.28;5010315;28;20445;-85
2022/06/21 07:48:38;;;;;;;3.47;2.73;;;;;;;22.37;46.24;157118.28;5014540;28;20452;-88
2022/06/21 07:51:08;;;;;;;2.50;2.30;;;;;;;22.48;46.76;157146.97;5013714;28;20448;-85
2022/06/21 07:53:38;;;;;;;3.00;2.70;;;;;;;21.97;45.52;157013.78;5014678;28;20549;-89
2022/06/21 07:56:11;;;;;;;3.20;2.83;;;;;;;22.10;46.50;157047.72;5010327;28;20477;-83
2022/06/21 07:58:50;;;;;;;4.50;3.00;;;;;;;21.74;47.90;156956.25;5008746;28;20816;-83
2022/06/21 08:06:55;;;;;;;4.27;2.77;;;;;;;21.68;46.93;156940.59;5012595;28;20523;-82
2022/06/21 08:09:27;;;;;;;5.30;2.80;;;;;;;22.22;47.23;157080.38;5015359;28;20448;-82
2022/06/21 08:11:55;;;;;;;3.50;3.20;;;;;;;22.25;46.68;157086.91;5030712;28;20445;-82
2022/06/21 08:14:24;;;;;;;3.87;2.70;;;;;;;22.28;46.36;157094.75;5009768;28;20456;-82
2022/06/21 08:16:55;;;;;;;5.90;3.10;;;;;;;21.91;47.48;156998.09;5007476;28;20484;-82
2022/06/21 08:19:27;;;;;;;3.50;3.20;;;;;;;21.55;48.32;156906.66;5030712;28;20460;-82
2022/06/21 08:21:57;;;;;;;3.97;3.37;;;;;;;21.37;48.14;156859.66;5014362;28;20514;-82
2022/06/21 08:24:27;;;;;;;3.83;3.30;;;;;;;21.01;49.44;156765.66;5015719;28;20436;-82
2022/06/21 08:26:59;;;;;;;4.13;3.30;;;;;;;20.97;50.10;156755.25;5014823;28;20436;-82
2022/06/21 08:29:33;;;;;;;6.90;3.33;;;;;;;20.67;50.87;156676.94;5013634;28;20552;-82
2022/06/21 08:32:02;;;;;;;3.37;3.07;;;;;;;20.41;51.81;156611.69;4997085;28;20445;-83
2022/06/21 08:34:34;;;;;;;3.20;2.97;;;;;;;20.42;51.67;156614.31;4994675;28;20433;-83
2022/06/21 08:37:03;;;;;;;3.67;3.10;;;;;;;20.58;51.88;156656.06;5020899;28;20445;-82
2022/06/21 08:39:33;;;;;;;4.60;3.13;;;;;;;20.75;51.53;156697.81;5025094;28;20812;-83
2022/06/21 08:42:29;;;;;;;3.50;3.13;;;;;;;20.74;52.68;156696.50;5013207;28;20464;-82
2022/06/21 08:45:46;;;;;;;5.20;3.03;;;;;;;20.78;52.77;156706.97;5013979;28;20480;-83
2022/06/21 08:48:53;;;;;;;3.30;3.00;;;;;;;20.91;51.57;156740.88;5011836;28;21030;-83
2022/06/21 08:51:45;;;;;;;3.80;3.50;;;;;;;20.97;51.72;156755.25;5014653;28;20893;-82
2022/06/21 08:54:25;;;;;;;3.67;3.37;;;;;;;20.67;50.91;156676.94;4996536;28;20572;-82
2022/06/21 08:56:57;;;;;;;4.27;3.53;;;;;;;20.54;52.32;156645.59;5013510;28;20440;-83
2022/06/21 08:59:33;;;;;;;3.93;3.20;;;;;;;20.53;52.41;156643.03;5013017;28;20495;-82
2022/06/21 09:02:06;;;;;;;3.97;3.57;;;;;;;20.35;54.43;156596.06;5014429;28;21101;-82
2022/06/21 09:04:42;;;;;;;4.30;3.47;;;;;;;20.20;57.42;156556.84;5013014;28;20461;-82
2022/06/21 09:07:24;;;;;;;3.63;3.33;;;;;;;20.14;60.06;156541.25;5014523;28;20884;-82
2022/06/21 09:10:09;;;;;;;7.77;3.93;;;;;;;20.23;60.34;156563.38;5012955;28;20914;-82
2022/06/21 09:12:47;;;;;;;4.03;3.43;;;;;;;20.30;59.11;156583.03;5009282;28;20444;-82
2022/06/21 09:15:40;;;;;;;5.00;3.07;;;;;;;20.18;55.04;156550.34;5026486;28;20460;-83
2022/06/21 09:18:18;;;;;;;3.70;3.40;;;;;;;20.27;57.25;156573.88;5013911;28;20492;-83
2022/06/21 09:20:58;;;;;;;3.80;3.07;;;;;;;20.28;56.29;156577.78;5013770;28;20444;-83
2022/06/21 09:23:48;;;;;;;4.70;3.23;;;;;;;20.57;56.26;156653.44;5028323;28;20926;-83
2022/06/21 09:26:22;;;;;;;3.43;3.13;;;;;;;20.64;56.68;156671.72;5025220;28;20457;-83
2022/06/21 09:28:52;;;;;;;4.53;3.10;;;;;;;20.86;53.47;156727.84;5012542;28;20549;-83
2022/06/21 09:31:24;;;;;;;5.60;3.47;;;;;;;21.01;54.31;156765.66;5007441;28;20440;-83
2022/06/21 09:33:56;;;;;;;3.43;2.97;;;;;;;21.06;52.56;156778.69;5023421;28;20453;-83
2022/06/21 09:36:28;;;;;;;4.07;3.77;;;;;;;21.64;54.06;156930.16;5000257;28;20449;-82
2022/06/21 09:39:07;;;;;;;3.87;3.07;;;;;;;22.23;51.00;157081.69;5006080;28;20494;-83
2022/06/21 09:41:41;;;;;;;4.07;3.20;;;;;;;22.18;49.40;157068.63;5003193;28;20460;-83
2022/06/21 09:44:15;;;;;;;4.67;3.27;;;;;;;22.60;49.42;157178.34;5009521;28;20451;-82
2022/06/21 09:46:47;;;;;;;6.03;3.80;;;;;;;23.37;49.59;157377.06;5012773;28;20439;-83
2022/06/21 09:49:24;;;;;;;3.70;3.33;;;;;;;23.66;47.24;157451.56;5021838;28;20928;-83
2022/06/21 09:51:59;;;;;;;5.07;3.77;;;;;;;23.33;46.82;157366.53;4999999;28;20452;-83
2022/06/21 09:54:34;;;;;;;4.93;3.30;;;;;;;23.31;47.67;157361.31;5025437;28;20567;-83
2022/06/21 09:57:11;;;;;;;3.70;3.40;;;;;;;23.30;47.95;157358.72;5025974;28;20818;-83
2022/06/21 09:59:42;;;;;;;4.13;3.73;;;;;;;23.36;47.65;157375.69;5006755;28;20982;-83
2022/06/21 10:02:16;;;;;;;4.33;3.43;;;;;;;23.29;47.80;157356.09;5011561;28;20480;-83
2022/06/21 10:04:55;;;;;;;5.43;3.27;;;;;;;23.45;47.26;157397.97;5007885;28;20444;-83
2022/06/21 10:07:30;;;;;;;4.30;3.90;;;;;;;23.66;47.31;157452.88;5012436;28;20456;-83
2022/06/21 10:10:05;;;;;;;4.67;3.30;;;;;;;23.71;47.80;157465.94;5018271;28;20835;-83
2022/06/21 10:12:40;;;;;;;3.00;2.80;;;;;;;23.70;46.71;157462.00;5021060;28;20468;-83
2022/06/21 10:15:31;;;;;;;2.93;2.50;;;;;;;23.81;47.71;157490.75;5027367;28;20456;-83
2022/06/21 10:18:35;;;;;;;4.97;3.57;;;;;;;23.59;47.75;157435.84;5027596;28;20456;-83
2022/06/21 10:21:27;;;;;;;7.60;3.23;;;;;;;23.45;47.86;157399.28;4962880;28;20479;-83
2022/06/21 10:24:17;;;;;;;4.10;3.70;;;;;;;23.52;49.05;157416.25;5021878;28;21045;-83
2022/06/21 10:27:03;;;;;;;4.00;3.57;;;;;;;23.63;47.77;157445.03;5028038;28;20535;-83
2022/06/21 10:29:58;;;;;;;4.20;3.70;;;;;;;23.95;48.35;157527.38;5003244;28;20445;-83
2022/06/21 10:32:37;;;;;;;5.00;2.80;;;;;;;24.12;47.68;157573.19;4988214;28;20943;-83
2022/06/21 10:35:27;;;;;;;4.03;3.60;;;;;;;24.02;46.96;157547.00;5011509;28;20450;-82
2022/06/21 10:38:09;;;;;;;5.13;3.70;;;;;;;24.11;48.68;157570.59;4990188;28;20463;-84
2022/06/21 10:40:54;;;;;;;4.63;3.57;;;;;;;24.20;47.94;157594.09;5027103;28;20457;-83
2022/06/21 10:44:05;;;;;;;4.60;3.53;;;;;;;24.15;48.05;157581.03;4992260;28;20572;-84
2022/06/21 10:46:38;;;;;;;3.90;3.60;;;;;;;24.02;48.35;157547.00;4967674;28;20508;-76
2022/06/21 10:49:25;;;;;;;4.77;3.63;;;;;;;23.86;48.98;157505.16;5008053;28;20448;-73
2022/06/21 10:52:05;;;;;;;4.20;3.80;;;;;;;24.14;49.73;157577.13;5006625;28;20449;-73
2022/06/21 10:55:00;;;;;;;5.73;4.20;;;;;;;23.79;50.51;157486.88;5022563;28;20452;-76
2022/06/21 10:57:35;;;;;;;4.70;4.30;;;;;;;23.61;50.77;157439.81;5014313;28;21096;-74
2022/06/21 11:03:21;;;;;;;4.83;4.37;;;;;;;23.64;50.54;157448.91;4999593;28;20472;-75
2022/06/21 11:05:55;;;;;;;5.00;4.60;;;;;;;23.70;51.09;157463.31;5011366;28;20463;-76
2022/06/21 11:08:29;;;;;;;4.40;4.00;;;;;;;24.10;50.89;157567.97;5010417;28;20476;-75
2022/06/21 11:11:02;;;;;;;4.73;4.17;;;;;;;24.35;51.01;157630.75;5010953;28;20425;-75
2022/06/21 11:13:33;;;;;;;5.37;4.53;;;;;;;24.22;50.44;157599.31;5009681;28;20455;-75
2022/06/21 11:16:04;;;;;;;7.30;6.23;;;;;;;24.41;51.30;157646.47;5009329;28;20536;-75
2022/06/21 11:18:40;;;;;;;4.60;4.30;;;;;;;24.09;50.85;157565.34;5011219;28;20486;-76
2022/06/21 11:21:17;;;;;;;5.10;4.70;;;;;;;23.91;51.58;157516.91;5005617;28;20511;-75
2022/06/21 11:23:53;;;;;;;6.83;5.30;;;;;;;23.79;52.39;157486.88;5026631;28;20483;-76
2022/06/21 11:26:27;;;;;;;4.90;4.50;;;;;;;23.88;51.56;157510.38;5022959;28;20552;-75
2022/06/21 11:29:05;;;;;;;5.20;4.70;;;;;;;23.92;53.18;157519.53;4994341;28;20445;-76
2022/06/21 11:31:40;;;;;;;4.90;4.40;;;;;;;23.94;53.44;157526.06;5008900;28;20460;-76
2022/06/21 11:34:14;;;;;;;5.47;4.80;;;;;;;23.81;54.15;157492.06;5005687;28;20460;-76
2022/06/21 11:36:49;;;;;;;5.57;4.70;;;;;;;23.52;54.34;157416.25;5011018;28;20535;-76
2022/06/21 11:39:27;;;;;;;5.47;4.97;;;;;;;23.61;53.81;157439.81;5005925;28;20453;-75
2022/06/21 11:42:16;;;;;;;6.20;4.90;;;;;;;23.77;55.43;157480.31;5026584;28;20444;-75
2022/06/21 11:45:08;;;;;;;5.83;5.33;;;;;;;23.53;54.91;157418.88;5014142;28;20429;-76
2022/06/21 11:47:56;;;;;;;5.80;5.17;;;;;;;23.92;54.65;157519.53;5008392;28;20444;-76
2022/06/21 11:50:24;;;;;;;5.30;4.80;;;;;;;24.20;54.30;157594.09;5008944;28;20503;-76
2022/06/21 11:53:08;;;;;;;5.63;5.10;;;;;;;24.33;54.49;157626.78;5027213;28;20441;-75
2022/06/21 11:55:41;;;;;;;5.57;5.07;;;;;;;24.49;53.44;157667.38;5009473;28;20539;-75
2022/06/21 11:58:22;;;;;;;5.50;5.10;;;;;;;24.35;54.03;157632.06;5010823;28;21153;-76
2022/06/21 12:00:52;;;;;;;7.27;6.57;;;;;;;24.37;54.06;157637.28;5010361;28;20543;-75
2022/06/21 12:03:29;;;;;;;5.67;5.17;;;;;;;24.19;54.55;157591.53;5011288;28;20546;-75